createdAt,value
2022-12-11T00:01:11.657Z,99036.52
2022-12-11T00:03:43.107Z,99033.09
2022-12-11T00:06:12.668Z,99032.45
2022-12-11T00:08:41.235Z,99031.73
2022-12-11T00:11:10.297Z,99031.56
2022-12-11T00:13:38.780Z,99030.88
2022-12-11T00:16:07.463Z,99034.52
2022-12-11T00:18:36.323Z,99032.19
2022-12-11T00:21:05.707Z,99021.30
2022-12-11T00:23:37.384Z,99014.48
2022-12-11T00:26:07.329Z,99006.44
2022-12-11T00:28:36.015Z,99005.34
2022-12-11T00:31:05.830Z,99000.55
2022-12-11T00:33:34.311Z,99003.66
2022-12-11T00:36:02.716Z,99005.31
2022-12-11T00:38:31.341Z,98997.55
2022-12-11T00:41:00.079Z,98988.80
2022-12-11T00:43:28.549Z,98984.60
2022-12-11T00:45:57.156Z,98986.80
2022-12-11T00:48:25.510Z,98981.68
2022-12-11T00:50:53.948Z,98981.54
2022-12-11T00:53:22.434Z,98975.44
2022-12-11T00:55:51.200Z,98972.21
2022-12-11T00:58:19.746Z,98969.57
2022-12-11T01:00:50.276Z,98962.17
2022-12-11T01:03:19.032Z,98965.42
2022-12-11T01:05:54.279Z,98959.60
2022-12-11T01:08:23.049Z,98951.71
2022-12-11T01:10:51.602Z,98941.89
2022-12-11T01:13:20.124Z,98940.60
2022-12-11T01:15:48.846Z,98936.57
2022-12-11T01:18:17.131Z,98929.40
2022-12-11T01:20:45.708Z,98915.38
2022-12-11T01:23:14.603Z,98910.55
2022-12-11T01:25:43.285Z,98904.80
2022-12-11T01:28:11.877Z,98901.22
2022-12-11T01:30:41.800Z,98899.23
2022-12-11T01:33:10.372Z,98900.88
2022-12-11T01:35:39.432Z,98895.98
2022-12-11T01:38:08.051Z,98886.05
2022-12-11T01:40:36.348Z,98876.52
2022-12-11T01:43:05.085Z,98876.12
2022-12-11T01:45:33.497Z,98868.80
2022-12-11T01:48:12.833Z,98870.45
2022-12-11T01:50:44.181Z,98864.99
2022-12-11T01:53:14.303Z,98864.41
2022-12-11T01:55:42.971Z,98863.34
2022-12-11T01:58:12.640Z,98857.15
2022-12-11T02:00:41.078Z,98851.71
2022-12-11T02:03:09.708Z,98844.15
2022-12-11T02:05:38.964Z,98838.25
2022-12-11T02:08:08.408Z,98833.24
2022-12-11T02:11:01.631Z,98829.98
2022-12-11T02:13:36.324Z,98825.15
2022-12-11T02:16:10.728Z,98823.88
2022-12-11T02:18:42.744Z,98826.15
2022-12-11T02:21:21.162Z,98817.77
2022-12-11T02:24:08.791Z,98813.60
2022-12-11T02:26:57.548Z,98806.33
2022-12-11T02:29:39.853Z,98802.18
2022-12-11T02:32:15.196Z,98798.23
2022-12-11T02:34:47.365Z,98800.23
2022-12-11T02:37:18.917Z,98795.02
2022-12-11T02:39:49.959Z,98786.10
2022-12-11T02:42:20.362Z,98774.22
2022-12-11T02:44:50.200Z,98770.58
2022-12-11T02:47:20.541Z,98766.39
2022-12-11T02:49:50.376Z,98768.16
2022-12-11T02:52:20.562Z,98768.98
2022-12-11T02:54:51.133Z,98768.05
2022-12-11T02:57:24.901Z,98761.15
2022-12-11T02:59:53.486Z,98754.41
2022-12-11T03:02:21.912Z,98748.30
2022-12-11T03:04:50.347Z,98753.38
2022-12-11T03:07:23.727Z,98744.89
2022-12-11T03:09:52.946Z,98741.77
2022-12-11T03:12:25.825Z,98738.59
2022-12-11T03:14:54.614Z,98740.20
2022-12-11T03:17:24.404Z,98736.75
2022-12-11T03:20:00.762Z,98730.71
2022-12-11T03:22:37.473Z,98732.09
2022-12-11T03:25:21.213Z,98732.44
2022-12-11T03:27:55.837Z,98728.60
2022-12-11T03:30:25.350Z,98717.83
2022-12-11T03:32:59.230Z,98711.91
2022-12-11T03:35:36.129Z,98707.52
2022-12-11T03:38:07.255Z,98700.08
2022-12-11T03:40:36.476Z,98699.14
2022-12-11T03:43:05.672Z,98687.48
2022-12-11T03:45:35.225Z,98684.81
2022-12-11T03:48:03.865Z,98685.58
2022-12-11T03:50:34.394Z,98677.82
2022-12-11T03:53:03.901Z,98677.23
2022-12-11T03:55:33.302Z,98665.77
2022-12-11T03:58:01.748Z,98668.98
2022-12-11T04:00:30.472Z,98666.77
2022-12-11T04:03:14.830Z,98670.15
2022-12-11T04:05:47.917Z,98668.30
2022-12-11T04:08:17.521Z,98663.08
2022-12-11T04:10:45.792Z,98663.08
2022-12-11T04:13:14.080Z,98659.42
2022-12-11T04:15:42.392Z,98656.81
2022-12-11T04:18:31.284Z,98651.75
2022-12-11T04:21:18.131Z,98651.08
2022-12-11T04:24:05.360Z,98647.78
2022-12-11T04:26:33.581Z,98647.80
2022-12-11T04:29:02.010Z,98649.08
2022-12-11T04:31:30.472Z,98644.63
2022-12-11T04:33:58.972Z,98635.44
2022-12-11T04:36:27.762Z,98638.66
2022-12-11T04:38:56.245Z,98636.66
2022-12-11T04:41:24.929Z,98639.23
2022-12-11T04:43:53.317Z,98640.64
2022-12-11T04:46:22.811Z,98640.51
2022-12-11T04:48:57.072Z,98638.25
2022-12-11T04:51:26.788Z,98641.47
2022-12-11T04:53:55.608Z,98641.22
2022-12-11T04:56:24.014Z,98638.67
2022-12-11T04:58:52.395Z,98638.27
2022-12-11T05:01:22.492Z,98637.48
2022-12-11T05:03:51.099Z,98639.05
2022-12-11T05:06:19.687Z,98641.36
2022-12-11T05:08:48.341Z,98644.70
2022-12-11T05:11:16.866Z,98637.65
2022-12-11T05:13:45.746Z,98642.70
2022-12-11T05:16:16.204Z,98640.69
2022-12-11T05:18:44.552Z,98640.91
2022-12-11T05:21:14.165Z,98636.49
2022-12-11T05:23:42.952Z,98630.43
2022-12-11T05:26:12.991Z,98631.13
2022-12-11T05:28:41.409Z,98632.33
2022-12-11T05:31:14.676Z,98626.62
2022-12-11T05:33:43.946Z,98627.98
2022-12-11T05:36:17.512Z,98631.13
2022-12-11T05:38:45.938Z,98626.86
2022-12-11T05:41:15.535Z,98617.41
2022-12-11T05:43:44.326Z,98617.79
2022-12-11T05:46:14.063Z,98613.27
2022-12-11T05:48:43.048Z,98619.96
2022-12-11T05:51:11.633Z,98620.81
2022-12-11T05:53:41.223Z,98625.05
2022-12-11T05:56:13.769Z,98631.91
2022-12-11T05:58:42.908Z,98627.07
2022-12-11T06:01:13.120Z,98623.52
2022-12-11T06:03:41.809Z,98633.80
2022-12-11T06:06:10.598Z,98631.04
2022-12-11T06:08:39.182Z,98629.54
2022-12-11T06:11:07.667Z,98634.08
2022-12-11T06:13:37.170Z,98639.52
2022-12-11T06:16:06.275Z,98646.27
2022-12-11T06:18:57.142Z,98651.72
2022-12-11T06:21:28.930Z,98655.16
2022-12-11T06:23:58.238Z,98664.03
2022-12-11T06:26:26.975Z,98661.38
2022-12-11T06:28:55.492Z,98660.85
2022-12-11T06:31:24.241Z,98661.25
2022-12-11T06:33:52.472Z,98658.52
2022-12-11T06:36:21.976Z,98658.95
2022-12-11T06:38:51.040Z,98668.31
2022-12-11T06:41:19.610Z,98669.41
2022-12-11T06:43:48.039Z,98667.60
2022-12-11T06:46:18.000Z,98678.42
2022-12-11T06:48:46.678Z,98677.54
2022-12-11T06:51:16.551Z,98680.41
2022-12-11T06:53:45.317Z,98688.42
2022-12-11T06:56:15.370Z,98691.37
2022-12-11T06:58:44.329Z,98692.69
2022-12-11T07:01:17.006Z,98699.70
2022-12-11T07:03:45.823Z,98702.59
2022-12-11T07:06:14.377Z,98706.73
2022-12-11T07:08:43.368Z,98707.77
2022-12-11T07:11:14.152Z,98709.70
2022-12-11T07:13:42.713Z,98721.14
2022-12-11T07:16:12.170Z,98728.42
2022-12-11T07:18:42.118Z,98732.84
2022-12-11T07:21:12.168Z,98739.73
2022-12-11T07:23:40.996Z,98737.49
2022-12-11T07:26:10.708Z,98739.05
2022-12-11T07:28:39.400Z,98737.00
2022-12-11T07:31:11.520Z,98745.17
2022-12-11T07:33:40.031Z,98748.96
2022-12-11T07:36:09.508Z,98756.13
2022-12-11T07:38:38.205Z,98767.02
2022-12-11T07:41:07.722Z,98770.45
2022-12-11T07:47:13.794Z,98781.35
2022-12-11T07:49:42.246Z,98779.87
2022-12-11T07:52:10.655Z,98788.39
2022-12-11T07:54:39.137Z,98798.45
2022-12-11T07:57:13.951Z,98801.44
2022-12-11T07:59:42.760Z,98802.44
2022-12-11T08:02:12.403Z,98800.08
2022-12-11T08:04:40.752Z,98803.38
2022-12-11T08:07:09.337Z,98806.60
2022-12-11T08:09:37.917Z,98803.36
2022-12-11T08:12:06.399Z,98797.11
2022-12-11T08:14:34.996Z,98799.33
2022-12-11T08:17:03.687Z,98799.11
2022-12-11T08:19:33.074Z,98800.89
2022-12-11T08:22:01.763Z,98802.56
2022-12-11T08:24:30.453Z,98808.44
2022-12-11T08:26:58.831Z,98815.50
2022-12-11T08:29:27.522Z,98822.17
2022-12-11T08:31:56.720Z,98826.30
2022-12-11T08:34:24.998Z,98826.35
2022-12-11T08:36:53.805Z,98832.71
2022-12-11T08:40:02.105Z,98834.30
2022-12-11T08:43:10.519Z,98830.33
2022-12-11T08:45:40.003Z,98828.51
2022-12-11T08:48:08.612Z,98831.34
2022-12-11T08:50:37.652Z,98836.21
2022-12-11T08:53:06.189Z,98839.05
2022-12-11T08:55:34.776Z,98838.05
2022-12-11T08:58:03.496Z,98837.59
2022-12-11T09:00:31.946Z,98834.65
2022-12-11T09:03:40.210Z,98827.41
2022-12-11T09:06:10.128Z,98823.83
2022-12-11T09:08:38.968Z,98823.35
2022-12-11T09:11:08.171Z,98820.70
2022-12-11T09:13:36.754Z,98817.55
2022-12-11T09:16:06.956Z,98817.82
2022-12-11T09:18:35.663Z,98819.61
2022-12-11T09:21:06.243Z,98817.23
2022-12-11T09:23:34.881Z,98805.45
2022-12-11T09:26:07.119Z,98804.09
2022-12-11T09:28:36.809Z,98805.96
2022-12-11T09:31:10.171Z,98805.11
2022-12-11T09:33:39.051Z,98799.60
2022-12-11T09:36:07.846Z,98797.70
2022-12-11T09:38:36.734Z,98799.73
2022-12-11T09:41:30.303Z,98802.70
2022-12-11T09:44:13.737Z,98799.65
2022-12-11T09:46:43.065Z,98793.81
2022-12-11T09:49:31.501Z,98789.79
2022-12-11T09:52:18.975Z,98785.09
2022-12-11T09:54:56.614Z,98779.00
2022-12-11T09:57:25.509Z,98773.09
2022-12-11T10:00:05.716Z,98774.58
2022-12-11T10:02:53.475Z,98768.50
2022-12-11T10:09:57.541Z,98758.39
2022-12-11T10:13:11.507Z,98752.69
2022-12-11T10:16:20.056Z,98757.64
2022-12-11T10:23:03.798Z,98776.19
2022-12-11T10:26:21.338Z,98780.56
2022-12-11T10:29:29.915Z,98786.67
2022-12-11T10:32:37.954Z,98795.09
2022-12-11T10:35:46.782Z,98798.55
2022-12-11T10:39:00.937Z,98787.77
2022-12-11T10:42:09.530Z,98788.94
2022-12-11T10:45:23.713Z,98785.11
2022-12-11T10:48:32.303Z,98768.84
2022-12-11T10:51:40.450Z,98780.99
2022-12-11T10:54:49.248Z,98788.17
2022-12-11T10:57:57.393Z,98788.58
2022-12-11T11:01:05.832Z,98788.67
2022-12-11T11:03:35.897Z,98786.98
2022-12-11T11:06:06.623Z,98784.66
2022-12-11T11:08:39.860Z,98784.70
2022-12-11T11:11:20.529Z,98784.96
2022-12-11T11:13:49.320Z,98783.90
2022-12-11T11:16:20.139Z,98778.63
2022-12-11T11:18:55.920Z,98777.74
2022-12-11T11:21:26.118Z,98774.05
2022-12-11T11:23:54.536Z,98772.09
2022-12-11T11:27:11.640Z,98769.13
2022-12-11T11:29:33.578Z,98766.13
2022-12-11T11:32:13.110Z,98770.52
2022-12-11T11:34:42.307Z,98771.77
2022-12-11T11:37:31.486Z,98772.77
2022-12-11T11:40:11.839Z,98775.32
2022-12-11T11:42:50.864Z,98777.45
2022-12-11T11:45:25.698Z,98774.73
2022-12-11T11:47:57.456Z,98779.10
2022-12-11T11:50:28.503Z,98780.83
2022-12-11T11:53:06.200Z,98784.73
2022-12-11T11:55:52.264Z,98777.17
2022-12-11T11:58:23.507Z,98777.02
2022-12-11T12:00:54.175Z,98780.48
2022-12-11T12:03:25.617Z,98780.80
2022-12-11T12:05:56.054Z,98791.16
2022-12-11T12:08:24.901Z,98792.45
2022-12-11T12:11:08.996Z,98794.66
2022-12-11T12:14:03.417Z,98800.65
2022-12-11T12:16:54.081Z,98802.42
2022-12-11T12:19:41.737Z,98800.03
2022-12-11T12:22:49.292Z,98800.65
2022-12-11T12:25:36.237Z,98806.45
2022-12-11T12:28:05.027Z,98805.47
2022-12-11T12:30:39.996Z,98811.86
2022-12-11T12:33:17.829Z,98811.70
2022-12-11T12:36:32.222Z,98810.91
2022-12-11T12:39:40.742Z,98807.45
2022-12-11T12:42:32.161Z,98813.30
2022-12-11T12:45:36.117Z,98805.77
2022-12-11T12:48:44.549Z,98808.00
2022-12-11T12:51:55.678Z,98817.02
2022-12-11T12:55:03.820Z,98821.91
2022-12-11T12:58:12.317Z,98818.13
2022-12-11T13:01:20.766Z,98807.23
2022-12-11T13:04:20.775Z,98799.83
2022-12-11T13:07:36.906Z,98799.33
2022-12-11T13:10:08.537Z,98806.52
2022-12-11T13:12:44.985Z,98812.92
2022-12-11T13:15:24.111Z,98815.02
2022-12-11T13:17:52.695Z,98810.89
2022-12-11T13:20:22.580Z,98805.29
2022-12-11T13:23:11.239Z,98797.90
2022-12-11T13:25:53.483Z,98802.06
2022-12-11T13:28:26.937Z,98808.90
2022-12-11T13:30:58.629Z,98805.85
2022-12-11T13:33:28.614Z,98800.97
2022-12-11T13:36:15.748Z,98795.71
2022-12-11T13:38:48.040Z,98801.23
2022-12-11T13:41:18.021Z,98807.41
2022-12-11T13:43:47.667Z,98814.15
2022-12-11T13:46:20.165Z,98814.84
2022-12-11T13:48:51.396Z,98819.99
2022-12-11T13:51:22.023Z,98820.10
2022-12-11T13:54:02.123Z,98826.73
2022-12-11T13:56:30.865Z,98828.14
2022-12-11T13:58:59.449Z,98831.71
2022-12-11T14:01:30.747Z,98833.63
2022-12-11T14:04:02.149Z,98836.10
2022-12-11T14:06:31.455Z,98835.34
2022-12-11T14:09:01.778Z,98840.89
2022-12-11T14:11:36.375Z,98846.77
2022-12-11T14:14:06.935Z,98849.23
2022-12-11T14:16:35.440Z,98842.52
2022-12-11T14:19:06.116Z,98837.33
2022-12-11T14:21:34.942Z,98837.92
2022-12-11T14:24:06.802Z,98841.11
2022-12-11T14:31:11.997Z,98852.96
2022-12-11T14:34:01.655Z,98865.73
2022-12-11T14:36:30.748Z,98867.12
2022-12-11T14:39:02.817Z,98864.95
2022-12-11T14:41:47.896Z,98867.83
2022-12-11T14:44:56.307Z,98868.33
2022-12-11T14:48:04.968Z,98864.86
2022-12-11T14:50:43.961Z,98855.05
2022-12-11T14:57:27.522Z,98864.55
2022-12-11T15:00:35.530Z,98874.48
2022-12-11T15:03:44.157Z,98876.48
2022-12-11T15:10:54.396Z,98885.63
2022-12-11T15:14:02.739Z,98904.59
2022-12-11T15:16:37.633Z,98912.09
2022-12-11T15:19:06.024Z,98919.79
2022-12-11T15:21:36.201Z,98932.11
2022-12-11T15:24:05.849Z,98944.26
2022-12-11T15:26:44.835Z,98945.83
2022-12-11T15:29:45.367Z,98953.34
2022-12-11T15:32:33.924Z,98959.08
2022-12-11T15:39:17.793Z,98994.77
2022-12-11T15:42:26.160Z,99003.27
2022-12-11T15:45:34.320Z,99012.28
2022-12-11T15:48:43.528Z,99019.66
2022-12-11T15:51:51.669Z,99000.98
2022-12-11T15:55:00.193Z,98997.98
2022-12-11T15:57:28.775Z,99003.73
2022-12-11T15:59:58.692Z,99001.12
2022-12-11T16:02:28.436Z,99005.04
2022-12-11T16:04:57.906Z,99001.35
2022-12-11T16:07:26.798Z,99005.06
2022-12-11T16:09:55.384Z,99002.56
2022-12-11T16:13:00.431Z,98994.44
2022-12-11T16:15:29.825Z,98999.91
2022-12-11T16:18:03.228Z,98994.67
2022-12-11T16:20:32.422Z,99008.63
2022-12-11T16:23:01.008Z,99016.66
2022-12-11T16:25:30.001Z,99008.15
2022-12-11T16:27:59.472Z,99009.04
2022-12-11T16:30:28.821Z,98993.67
2022-12-11T16:32:57.493Z,98996.42
2022-12-11T16:35:26.385Z,98998.42
2022-12-11T16:37:55.073Z,98997.40
2022-12-11T16:40:23.969Z,98992.36
2022-12-11T16:42:52.838Z,98983.55
2022-12-11T16:45:22.261Z,98985.23
2022-12-11T16:47:51.299Z,98985.94
2022-12-11T16:50:20.414Z,98999.72
2022-12-11T16:52:48.624Z,99008.73
2022-12-11T16:55:21.371Z,99012.45
2022-12-11T16:57:49.990Z,99005.23
2022-12-11T17:00:18.476Z,98999.95
2022-12-11T17:02:46.997Z,99005.20
2022-12-11T17:05:15.950Z,99008.84
2022-12-11T17:07:44.348Z,99009.08
2022-12-11T17:10:13.225Z,99018.80
2022-12-11T17:12:42.113Z,99032.25
2022-12-11T17:15:10.798Z,99050.13
2022-12-11T17:17:39.569Z,99061.34
2022-12-11T17:20:08.686Z,99068.43
2022-12-11T17:22:37.371Z,99068.66
2022-12-11T17:25:05.883Z,99066.38
2022-12-11T17:27:34.600Z,99068.21
2022-12-11T17:30:02.920Z,99064.95
2022-12-11T17:32:31.473Z,99075.93
2022-12-11T17:35:00.291Z,99085.38
2022-12-11T17:37:28.633Z,99089.06
2022-12-11T17:39:57.256Z,99101.69
2022-12-11T17:42:25.944Z,99111.05
2022-12-11T17:44:54.538Z,99117.56
2022-12-11T17:47:22.905Z,99130.92
2022-12-11T17:49:51.391Z,99133.77
2022-12-11T17:52:20.074Z,99123.58
2022-12-11T17:54:48.555Z,99121.96
2022-12-11T17:57:17.241Z,99112.13
2022-12-11T17:59:45.928Z,99105.83
2022-12-11T18:02:14.435Z,99115.83
2022-12-11T18:04:42.992Z,99112.68
2022-12-11T18:07:11.545Z,99118.86
2022-12-11T18:09:40.877Z,99121.80
2022-12-11T18:12:18.096Z,99129.04
2022-12-11T18:14:46.553Z,99120.61
2022-12-11T18:17:15.438Z,99117.27
2022-12-11T18:19:46.208Z,99126.50
2022-12-11T18:22:14.755Z,99143.67
2022-12-11T18:24:43.159Z,99143.20
2022-12-11T18:27:12.845Z,99156.67
2022-12-11T18:29:41.425Z,99151.58
2022-12-11T18:32:09.911Z,99147.89
2022-12-11T18:34:38.598Z,99140.83
2022-12-11T18:37:07.391Z,99137.77
2022-12-11T18:39:35.767Z,99142.79
2022-12-11T18:42:31.899Z,99138.98
2022-12-11T18:44:53.107Z,99140.99
2022-12-11T18:47:22.202Z,99148.73
2022-12-11T18:49:50.581Z,99148.05
2022-12-11T18:52:19.064Z,99147.05
2022-12-11T18:54:47.955Z,99154.77
2022-12-11T18:57:17.562Z,99146.84
2022-12-11T18:59:46.045Z,99141.98
2022-12-11T19:02:14.746Z,99137.80
2022-12-11T19:04:43.023Z,99136.26
2022-12-11T19:07:11.444Z,99143.73
2022-12-11T19:09:44.844Z,99152.75
2022-12-11T19:12:16.238Z,99156.63
2022-12-11T19:14:45.126Z,99165.98
2022-12-11T19:17:13.507Z,99175.65
2022-12-11T19:19:43.424Z,99182.51
2022-12-11T19:22:12.417Z,99187.12
2022-12-11T19:24:40.997Z,99194.00
2022-12-11T19:27:13.435Z,99192.80
2022-12-11T19:29:42.776Z,99191.64
2022-12-11T19:32:11.079Z,99197.74
2022-12-11T19:34:39.638Z,99203.51
2022-12-11T19:37:08.587Z,99210.90
2022-12-11T19:39:38.649Z,99220.07
2022-12-11T19:42:07.026Z,99223.31
2022-12-11T19:44:35.924Z,99223.27
2022-12-11T19:47:04.448Z,99221.83
2022-12-11T19:49:32.881Z,99225.30
2022-12-11T19:52:01.566Z,99222.14
2022-12-11T19:54:30.252Z,99231.70
2022-12-11T19:56:58.573Z,99228.34
2022-12-11T19:59:27.318Z,99227.77
2022-12-11T20:01:55.768Z,99224.33
2022-12-11T20:04:25.715Z,99226.95
2022-12-11T20:06:54.301Z,99226.02
2022-12-11T20:09:24.633Z,99224.64
2022-12-11T20:11:53.209Z,99228.63
2022-12-11T20:14:23.600Z,99226.15
2022-12-11T20:17:10.952Z,99226.11
2022-12-11T20:19:40.160Z,99219.31
2022-12-11T20:22:09.392Z,99224.41
2022-12-11T20:24:37.738Z,99230.25
2022-12-11T20:27:06.627Z,99230.70
2022-12-11T20:29:35.112Z,99241.69
2022-12-11T20:32:03.462Z,99244.19
2022-12-11T20:34:32.249Z,99250.81
2022-12-11T20:37:00.662Z,99265.30
2022-12-11T20:39:29.548Z,99269.53
2022-12-11T20:41:58.409Z,99275.60
2022-12-11T20:44:26.921Z,99278.45
2022-12-11T20:46:55.298Z,99279.94
2022-12-11T20:49:24.087Z,99285.17
2022-12-11T20:51:52.569Z,99288.39
2022-12-11T20:54:21.051Z,99289.79
2022-12-11T20:56:49.700Z,99289.76
2022-12-11T20:59:18.667Z,99289.83
2022-12-11T21:01:47.126Z,99289.25
2022-12-11T21:04:16.272Z,99291.73
2022-12-11T21:06:44.792Z,99293.47
2022-12-11T21:09:14.408Z,99292.86
2022-12-11T21:11:43.555Z,99285.76
2022-12-11T21:14:11.770Z,99286.95
2022-12-11T21:16:40.250Z,99288.66
2022-12-11T21:19:16.411Z,99291.89
2022-12-11T21:21:45.919Z,99301.42
2022-12-11T21:24:16.862Z,99292.65
2022-12-11T21:26:45.837Z,99290.17
2022-12-11T21:29:14.640Z,99284.94
2022-12-11T21:31:43.560Z,99279.70
2022-12-11T21:34:11.915Z,99281.52
2022-12-11T21:36:40.494Z,99283.07
2022-12-11T21:39:09.385Z,99289.86
2022-12-11T21:41:37.662Z,99291.55
2022-12-11T21:46:55.130Z,99298.94
2022-12-11T21:49:23.791Z,99299.23
2022-12-11T21:51:52.124Z,99299.80
2022-12-11T21:54:21.030Z,99301.16
2022-12-11T21:56:49.441Z,99311.52
2022-12-11T21:59:18.028Z,99325.58
2022-12-11T22:01:46.609Z,99329.11
2022-12-11T22:04:15.509Z,99324.58
2022-12-11T22:06:47.388Z,99325.21
2022-12-11T22:09:17.009Z,99328.59
2022-12-11T22:11:46.127Z,99333.31
2022-12-11T22:14:15.776Z,99329.65
2022-12-11T22:16:44.535Z,99333.48
2022-12-11T22:19:13.250Z,99339.96
2022-12-11T22:21:41.425Z,99336.34
2022-12-11T22:24:10.376Z,99342.50
2022-12-11T22:26:39.318Z,99331.52
2022-12-11T22:29:08.099Z,99330.90
2022-12-11T22:31:36.580Z,99335.48
2022-12-11T22:34:05.207Z,99332.91
2022-12-11T22:36:33.407Z,99329.90
2022-12-11T22:39:02.540Z,99332.08
2022-12-11T22:41:32.307Z,99338.29
2022-12-11T22:44:00.729Z,99340.39
2022-12-11T22:46:31.222Z,99343.30
2022-12-11T22:48:59.849Z,99356.57
2022-12-11T22:51:28.426Z,99356.48
2022-12-11T22:53:57.930Z,99353.91
2022-12-11T22:56:26.410Z,99349.11
2022-12-11T22:58:54.896Z,99349.19
2022-12-11T23:01:25.089Z,99346.02
2022-12-11T23:03:53.534Z,99349.42
2022-12-11T23:06:23.411Z,99358.11
2022-12-11T23:08:52.679Z,99356.06
2022-12-11T23:11:24.263Z,99352.95
2022-12-11T23:13:53.153Z,99343.54
2022-12-11T23:16:22.874Z,99348.48
2022-12-11T23:18:52.066Z,99346.17
2022-12-11T23:21:21.980Z,99339.45
2022-12-11T23:23:51.177Z,99330.30
2022-12-11T23:26:19.859Z,99332.55
2022-12-11T23:28:48.109Z,99333.59
2022-12-11T23:31:17.219Z,99341.73
2022-12-11T23:33:46.126Z,99351.80
2022-12-11T23:36:14.711Z,99358.61
2022-12-11T23:38:43.293Z,99364.95
2022-12-11T23:41:13.343Z,99375.29
2022-12-11T23:43:42.203Z,99381.72
2022-12-11T23:46:15.217Z,99392.45
2022-12-11T23:48:43.929Z,99400.38
2022-12-11T23:51:14.309Z,99402.77
2022-12-11T23:53:43.194Z,99409.39
2022-12-11T23:56:13.316Z,99416.16
2022-12-11T23:58:41.795Z,99415.33
